sensor_id;sensor_type;location;lat;lon;timestamp;temperature;humidity
63017;DHT22;50274;45.640;11.756;2022-08-25T00:01:26;24.90;58.50
63017;DHT22;50274;45.640;11.756;2022-08-25T00:03:53;24.90;58.60
63017;DHT22;50274;45.640;11.756;2022-08-25T00:06:19;24.90;58.70
63017;DHT22;50274;45.640;11.756;2022-08-25T00:08:46;24.90;58.70
63017;DHT22;50274;45.640;11.756;2022-08-25T00:11:19;24.90;58.80
63017;DHT22;50274;45.640;11.756;2022-08-25T00:13:48;24.90;58.90
63017;DHT22;50274;45.640;11.756;2022-08-25T00:16:16;24.90;59.00
63017;DHT22;50274;45.640;11.756;2022-08-25T00:18:45;24.80;59.10
63017;DHT22;50274;45.640;11.756;2022-08-25T00:21:13;24.80;59.10
63017;DHT22;50274;45.640;11.756;2022-08-25T00:23:40;24.80;59.10
63017;DHT22;50274;45.640;11.756;2022-08-25T00:26:06;24.80;59.10
63017;DHT22;50274;45.640;11.756;2022-08-25T00:28:32;24.80;59.20
63017;DHT22;50274;45.640;11.756;2022-08-25T00:30:58;24.80;59.20
63017;DHT22;50274;45.640;11.756;2022-08-25T00:33:26;24.80;59.20
63017;DHT22;50274;45.640;11.756;2022-08-25T00:35:53;24.70;59.20
63017;DHT22;50274;45.640;11.756;2022-08-25T00:38:20;24.70;59.20
63017;DHT22;50274;45.640;11.756;2022-08-25T00:40:47;24.70;59.30
63017;DHT22;50274;45.640;11.756;2022-08-25T00:43:35;24.70;59.40
63017;DHT22;50274;45.640;11.756;2022-08-25T00:46:12;24.70;59.50
63017;DHT22;50274;45.640;11.756;2022-08-25T00:48:41;24.60;59.50
63017;DHT22;50274;45.640;11.756;2022-08-25T00:51:12;24.60;59.70
63017;DHT22;50274;45.640;11.756;2022-08-25T00:53:40;24.60;59.80
63017;DHT22;50274;45.640;11.756;2022-08-25T00:56:06;24.60;59.80
63017;DHT22;50274;45.640;11.756;2022-08-25T00:58:33;24.60;59.90
63017;DHT22;50274;45.640;11.756;2022-08-25T01:00:59;24.60;59.90
63017;DHT22;50274;45.640;11.756;2022-08-25T01:03:27;24.60;60.00
63017;DHT22;50274;45.640;11.756;2022-08-25T01:05:54;24.60;60.10
63017;DHT22;50274;45.640;11.756;2022-08-25T01:08:23;24.60;60.20
63017;DHT22;50274;45.640;11.756;2022-08-25T01:10:52;24.60;60.20
63017;DHT22;50274;45.640;11.756;2022-08-25T01:13:29;24.60;60.20
63017;DHT22;50274;45.640;11.756;2022-08-25T01:15:57;24.60;60.20
63017;DHT22;50274;45.640;11.756;2022-08-25T01:18:25;24.60;60.20
63017;DHT22;50274;45.640;11.756;2022-08-25T01:20:53;24.50;60.30
63017;DHT22;50274;45.640;11.756;2022-08-25T01:23:20;24.50;60.30
63017;DHT22;50274;45.640;11.756;2022-08-25T01:28:17;24.40;60.50
63017;DHT22;50274;45.640;11.756;2022-08-25T01:30:44;24.40;60.60
63017;DHT22;50274;45.640;11.756;2022-08-25T01:33:10;24.40;60.70
63017;DHT22;50274;45.640;11.756;2022-08-25T01:35:38;24.40;60.90
63017;DHT22;50274;45.640;11.756;2022-08-25T01:38:05;24.30;61.20
63017;DHT22;50274;45.640;11.756;2022-08-25T01:40:31;24.30;61.10
63017;DHT22;50274;45.640;11.756;2022-08-25T01:45:36;24.20;61.00
63017;DHT22;50274;45.640;11.756;2022-08-25T01:48:03;24.10;61.00
63017;DHT22;50274;45.640;11.756;2022-08-25T01:50:29;24.10;61.00
63017;DHT22;50274;45.640;11.756;2022-08-25T01:53:02;24.10;61.00
63017;DHT22;50274;45.640;11.756;2022-08-25T01:55:28;24.10;60.90
63017;DHT22;50274;45.640;11.756;2022-08-25T01:57:54;24.10;60.80
63017;DHT22;50274;45.640;11.756;2022-08-25T02:00:21;24.10;60.80
63017;DHT22;50274;45.640;11.756;2022-08-25T02:02:47;24.10;60.70
63017;DHT22;50274;45.640;11.756;2022-08-25T02:05:14;24.10;60.60
63017;DHT22;50274;45.640;11.756;2022-08-25T02:07:42;24.10;60.60
63017;DHT22;50274;45.640;11.756;2022-08-25T02:10:11;24.10;60.60
63017;DHT22;50274;45.640;11.756;2022-08-25T02:12:37;24.10;60.60
63017;DHT22;50274;45.640;11.756;2022-08-25T02:15:06;24.10;60.60
63017;DHT22;50274;45.640;11.756;2022-08-25T02:17:34;24.10;60.50
63017;DHT22;50274;45.640;11.756;2022-08-25T02:20:05;24.10;60.50
63017;DHT22;50274;45.640;11.756;2022-08-25T02:22:31;24.10;60.60
63017;DHT22;50274;45.640;11.756;2022-08-25T02:24:57;24.10;60.70
63017;DHT22;50274;45.640;11.756;2022-08-25T02:27:23;24.10;60.70
63017;DHT22;50274;45.640;11.756;2022-08-25T02:29:49;24.10;60.70
63017;DHT22;50274;45.640;11.756;2022-08-25T02:32:15;24.00;60.80
63017;DHT22;50274;45.640;11.756;2022-08-25T02:34:41;24.00;60.80
63017;DHT22;50274;45.640;11.756;2022-08-25T02:37:07;24.00;60.80
63017;DHT22;50274;45.640;11.756;2022-08-25T02:39:33;24.00;60.90
63017;DHT22;50274;45.640;11.756;2022-08-25T02:41:59;23.90;61.10
63017;DHT22;50274;45.640;11.756;2022-08-25T02:44:24;23.90;61.20
63017;DHT22;50274;45.640;11.756;2022-08-25T02:46:50;23.80;61.30
63017;DHT22;50274;45.640;11.756;2022-08-25T02:49:16;23.80;61.40
63017;DHT22;50274;45.640;11.756;2022-08-25T02:51:43;23.80;61.50
63017;DHT22;50274;45.640;11.756;2022-08-25T02:54:09;23.70;61.60
63017;DHT22;50274;45.640;11.756;2022-08-25T02:56:35;23.70;61.60
63017;DHT22;50274;45.640;11.756;2022-08-25T02:59:01;23.70;61.70
63017;DHT22;50274;45.640;11.756;2022-08-25T03:01:27;23.70;61.70
63017;DHT22;50274;45.640;11.756;2022-08-25T03:03:54;23.70;61.80
63017;DHT22;50274;45.640;11.756;2022-08-25T03:06:21;23.70;61.80
63017;DHT22;50274;45.640;11.756;2022-08-25T03:08:48;23.60;61.80
63017;DHT22;50274;45.640;11.756;2022-08-25T03:11:15;23.60;61.80
63017;DHT22;50274;45.640;11.756;2022-08-25T03:13:42;23.50;61.90
63017;DHT22;50274;45.640;11.756;2022-08-25T03:16:08;23.50;62.00
63017;DHT22;50274;45.640;11.756;2022-08-25T03:18:35;23.50;62.10
63017;DHT22;50274;45.640;11.756;2022-08-25T03:21:01;23.40;62.10
63017;DHT22;50274;45.640;11.756;2022-08-25T03:23:27;23.40;62.20
63017;DHT22;50274;45.640;11.756;2022-08-25T03:25:54;23.40;62.20
63017;DHT22;50274;45.640;11.756;2022-08-25T03:28:38;23.40;62.30
63017;DHT22;50274;45.640;11.756;2022-08-25T03:31:07;23.40;62.30
63017;DHT22;50274;45.640;11.756;2022-08-25T03:33:33;23.40;62.20
63017;DHT22;50274;45.640;11.756;2022-08-25T03:35:59;23.40;62.20
63017;DHT22;50274;45.640;11.756;2022-08-25T03:38:25;23.40;62.10
63017;DHT22;50274;45.640;11.756;2022-08-25T03:40:51;23.40;62.00
63017;DHT22;50274;45.640;11.756;2022-08-25T03:43:18;23.40;62.00
63017;DHT22;50274;45.640;11.756;2022-08-25T03:45:44;23.40;61.90
63017;DHT22;50274;45.640;11.756;2022-08-25T03:48:11;23.40;61.90
63017;DHT22;50274;45.640;11.756;2022-08-25T03:50:44;23.40;61.90
63017;DHT22;50274;45.640;11.756;2022-08-25T03:53:10;23.40;61.90
63017;DHT22;50274;45.640;11.756;2022-08-25T03:55:36;23.40;62.00
63017;DHT22;50274;45.640;11.756;2022-08-25T03:58:02;23.40;62.00
63017;DHT22;50274;45.640;11.756;2022-08-25T04:00:28;23.40;62.00
63017;DHT22;50274;45.640;11.756;2022-08-25T04:02:54;23.40;62.10
63017;DHT22;50274;45.640;11.756;2022-08-25T04:05:20;23.40;62.10
63017;DHT22;50274;45.640;11.756;2022-08-25T04:07:45;23.40;62.10
63017;DHT22;50274;45.640;11.756;2022-08-25T04:10:12;23.30;62.10
63017;DHT22;50274;45.640;11.756;2022-08-25T04:12:38;23.30;62.20
63017;DHT22;50274;45.640;11.756;2022-08-25T04:15:05;23.30;62.30
63017;DHT22;50274;45.640;11.756;2022-08-25T04:17:32;23.30;62.40
63017;DHT22;50274;45.640;11.756;2022-08-25T04:19:59;23.30;62.40
63017;DHT22;50274;45.640;11.756;2022-08-25T04:22:26;23.20;62.50
63017;DHT22;50274;45.640;11.756;2022-08-25T04:24:51;23.20;62.50
63017;DHT22;50274;45.640;11.756;2022-08-25T04:27:17;23.20;62.60
63017;DHT22;50274;45.640;11.756;2022-08-25T04:29:43;23.20;62.70
63017;DHT22;50274;45.640;11.756;2022-08-25T04:32:09;23.10;62.70
63017;DHT22;50274;45.640;11.756;2022-08-25T04:34:35;23.10;62.60
63017;DHT22;50274;45.640;11.756;2022-08-25T04:37:02;23.10;62.60
63017;DHT22;50274;45.640;11.756;2022-08-25T04:39:30;23.10;62.60
63017;DHT22;50274;45.640;11.756;2022-08-25T04:41:57;23.10;62.60
63017;DHT22;50274;45.640;11.756;2022-08-25T04:44:25;23.10;62.60
63017;DHT22;50274;45.640;11.756;2022-08-25T04:46:50;23.10;62.60
63017;DHT22;50274;45.640;11.756;2022-08-25T04:49:16;23.10;62.60
63017;DHT22;50274;45.640;11.756;2022-08-25T04:51:43;23.10;62.70
63017;DHT22;50274;45.640;11.756;2022-08-25T04:54:12;23.10;62.70
63017;DHT22;50274;45.640;11.756;2022-08-25T04:56:41;23.10;62.70
63017;DHT22;50274;45.640;11.756;2022-08-25T04:59:09;23.10;62.70
63017;DHT22;50274;45.640;11.756;2022-08-25T05:01:36;23.10;62.70
63017;DHT22;50274;45.640;11.756;2022-08-25T05:04:05;23.20;62.70
63017;DHT22;50274;45.640;11.756;2022-08-25T05:06:32;23.10;62.80
63017;DHT22;50274;45.640;11.756;2022-08-25T05:08:59;23.10;62.80
63017;DHT22;50274;45.640;11.756;2022-08-25T05:11:26;23.10;62.90
63017;DHT22;50274;45.640;11.756;2022-08-25T05:13:53;23.10;62.80
63017;DHT22;50274;45.640;11.756;2022-08-25T05:16:21;23.10;62.80
63017;DHT22;50274;45.640;11.756;2022-08-25T05:18:47;23.20;62.80
63017;DHT22;50274;45.640;11.756;2022-08-25T05:21:16;23.20;62.70
63017;DHT22;50274;45.640;11.756;2022-08-25T05:23:43;23.10;62.70
63017;DHT22;50274;45.640;11.756;2022-08-25T05:26:11;23.20;62.70
63017;DHT22;50274;45.640;11.756;2022-08-25T05:28:39;23.20;62.60
63017;DHT22;50274;45.640;11.756;2022-08-25T05:31:10;23.20;62.60
63017;DHT22;50274;45.640;11.756;2022-08-25T05:33:37;23.20;62.60
63017;DHT22;50274;45.640;11.756;2022-08-25T05:36:04;23.20;62.70
63017;DHT22;50274;45.640;11.756;2022-08-25T05:38:31;23.30;62.70
63017;DHT22;50274;45.640;11.756;2022-08-25T05:40:59;23.30;62.60
63017;DHT22;50274;45.640;11.756;2022-08-25T05:43:25;23.40;62.60
63017;DHT22;50274;45.640;11.756;2022-08-25T05:45:55;23.40;62.50
63017;DHT22;50274;45.640;11.756;2022-08-25T05:48:21;23.50;62.50
63017;DHT22;50274;45.640;11.756;2022-08-25T05:50:58;23.60;62.40
63017;DHT22;50274;45.640;11.756;2022-08-25T05:53:25;23.60;62.30
63017;DHT22;50274;45.640;11.756;2022-08-25T05:55:53;23.70;62.30
63017;DHT22;50274;45.640;11.756;2022-08-25T06:01:40;23.80;62.20
63017;DHT22;50274;45.640;11.756;2022-08-25T06:04:24;23.90;62.20
63017;DHT22;50274;45.640;11.756;2022-08-25T06:06:50;24.00;62.10
63017;DHT22;50274;45.640;11.756;2022-08-25T06:09:20;24.10;62.10
63017;DHT22;50274;45.640;11.756;2022-08-25T06:11:46;24.10;62.00
63017;DHT22;50274;45.640;11.756;2022-08-25T06:14:12;24.20;61.90
63017;DHT22;50274;45.640;11.756;2022-08-25T06:16:38;24.30;61.70
63017;DHT22;50274;45.640;11.756;2022-08-25T06:19:05;24.40;61.60
63017;DHT22;50274;45.640;11.756;2022-08-25T06:21:31;24.60;61.50
63017;DHT22;50274;45.640;11.756;2022-08-25T06:23:57;24.60;61.30
63017;DHT22;50274;45.640;11.756;2022-08-25T06:26:24;24.70;61.20
63017;DHT22;50274;45.640;11.756;2022-08-25T06:28:51;24.80;61.10
63017;DHT22;50274;45.640;11.756;2022-08-25T06:31:17;24.90;61.00
63017;DHT22;50274;45.640;11.756;2022-08-25T06:33:44;25.10;60.80
63017;DHT22;50274;45.640;11.756;2022-08-25T06:39:18;25.20;60.60
63017;DHT22;50274;45.640;11.756;2022-08-25T06:41:44;25.40;60.40
63017;DHT22;50274;45.640;11.756;2022-08-25T06:44:10;25.50;60.30
63017;DHT22;50274;45.640;11.756;2022-08-25T06:46:37;25.60;60.10
63017;DHT22;50274;45.640;11.756;2022-08-25T06:49:06;25.70;60.00
63017;DHT22;50274;45.640;11.756;2022-08-25T06:51:33;25.80;59.80
63017;DHT22;50274;45.640;11.756;2022-08-25T06:54:00;25.90;59.60
63017;DHT22;50274;45.640;11.756;2022-08-25T06:56:26;26.00;59.50
63017;DHT22;50274;45.640;11.756;2022-08-25T06:58:52;26.10;59.20
63017;DHT22;50274;45.640;11.756;2022-08-25T07:01:21;26.20;58.70
63017;DHT22;50274;45.640;11.756;2022-08-25T07:03:55;26.30;58.40
63017;DHT22;50274;45.640;11.756;2022-08-25T07:06:22;26.40;58.00
63017;DHT22;50274;45.640;11.756;2022-08-25T07:08:49;26.40;57.50
63017;DHT22;50274;45.640;11.756;2022-08-25T07:11:15;26.50;57.10
63017;DHT22;50274;45.640;11.756;2022-08-25T07:13:43;26.60;57.00
63017;DHT22;50274;45.640;11.756;2022-08-25T07:16:10;26.70;57.00
63017;DHT22;50274;45.640;11.756;2022-08-25T07:18:36;26.80;56.80
63017;DHT22;50274;45.640;11.756;2022-08-25T07:21:01;26.90;56.60
63017;DHT22;50274;45.640;11.756;2022-08-25T07:23:27;27.00;56.20
63017;DHT22;50274;45.640;11.756;2022-08-25T07:25:54;27.10;56.00
63017;DHT22;50274;45.640;11.756;2022-08-25T07:28:21;27.10;55.70
63017;DHT22;50274;45.640;11.756;2022-08-25T07:30:49;27.30;55.60
63017;DHT22;50274;45.640;11.756;2022-08-25T07:33:16;27.30;55.40
63017;DHT22;50274;45.640;11.756;2022-08-25T07:35:41;27.40;55.40
63017;DHT22;50274;45.640;11.756;2022-08-25T07:38:07;27.60;55.40
63017;DHT22;50274;45.640;11.756;2022-08-25T07:40:36;27.60;55.30
63017;DHT22;50274;45.640;11.756;2022-08-25T07:43:06;27.60;55.20
63017;DHT22;50274;45.640;11.756;2022-08-25T07:45:35;27.70;54.90
63017;DHT22;50274;45.640;11.756;2022-08-25T07:48:07;27.70;54.60
63017;DHT22;50274;45.640;11.756;2022-08-25T07:50:35;27.80;54.10
63017;DHT22;50274;45.640;11.756;2022-08-25T07:53:03;27.80;53.90
63017;DHT22;50274;45.640;11.756;2022-08-25T07:55:30;27.90;53.70
63017;DHT22;50274;45.640;11.756;2022-08-25T07:57:56;27.90;53.80
63017;DHT22;50274;45.640;11.756;2022-08-25T08:00:25;28.00;53.70
63017;DHT22;50274;45.640;11.756;2022-08-25T08:02:55;28.00;53.30
63017;DHT22;50274;45.640;11.756;2022-08-25T08:05:22;28.10;53.00
63017;DHT22;50274;45.640;11.756;2022-08-25T08:07:48;28.10;52.90
63017;DHT22;50274;45.640;11.756;2022-08-25T08:10:14;28.20;52.60
63017;DHT22;50274;45.640;11.756;2022-08-25T08:12:41;28.20;52.70
63017;DHT22;50274;45.640;11.756;2022-08-25T08:15:08;28.30;52.10
63017;DHT22;50274;45.640;11.756;2022-08-25T08:20:56;28.40;52.10
63017;DHT22;50274;45.640;11.756;2022-08-25T08:23:22;28.40;52.00
63017;DHT22;50274;45.640;11.756;2022-08-25T08:25:52;28.40;51.50
63017;DHT22;50274;45.640;11.756;2022-08-25T08:28:18;28.50;51.40
63017;DHT22;50274;45.640;11.756;2022-08-25T08:30:44;28.60;51.60
63017;DHT22;50274;45.640;11.756;2022-08-25T08:33:10;28.60;51.70
63017;DHT22;50274;45.640;11.756;2022-08-25T08:35:36;28.70;51.70
63017;DHT22;50274;45.640;11.756;2022-08-25T08:38:02;28.80;50.80
63017;DHT22;50274;45.640;11.756;2022-08-25T08:40:29;28.90;51.00
63017;DHT22;50274;45.640;11.756;2022-08-25T08:43:15;29.00;51.00
63017;DHT22;50274;45.640;11.756;2022-08-25T08:45:51;29.10;50.20
63017;DHT22;50274;45.640;11.756;2022-08-25T08:51:06;29.10;49.80
63017;DHT22;50274;45.640;11.756;2022-08-25T08:56:19;29.20;49.10
63017;DHT22;50274;45.640;11.756;2022-08-25T08:58:49;29.30;49.10
63017;DHT22;50274;45.640;11.756;2022-08-25T09:01:28;29.30;49.50
63017;DHT22;50274;45.640;11.756;2022-08-25T09:04:08;29.40;49.10
63017;DHT22;50274;45.640;11.756;2022-08-25T09:06:41;29.50;48.20
63017;DHT22;50274;45.640;11.756;2022-08-25T09:09:08;29.50;48.00
63017;DHT22;50274;45.640;11.756;2022-08-25T09:28:06;30.20;46.80
63017;DHT22;50274;45.640;11.756;2022-08-25T09:31:00;30.30;46.10
63017;DHT22;50274;45.640;11.756;2022-08-25T09:33:28;30.40;46.20
63017;DHT22;50274;45.640;11.756;2022-08-25T09:35:55;30.50;46.00
63017;DHT22;50274;45.640;11.756;2022-08-25T09:38:23;30.60;45.60
63017;DHT22;50274;45.640;11.756;2022-08-25T09:40:53;30.60;44.90
63017;DHT22;50274;45.640;11.756;2022-08-25T09:48:49;30.80;44.70
63017;DHT22;50274;45.640;11.756;2022-08-25T09:51:19;31.00;44.30
63017;DHT22;50274;45.640;11.756;2022-08-25T09:53:59;31.10;43.70
63017;DHT22;50274;45.640;11.756;2022-08-25T09:56:30;31.10;44.30
63017;DHT22;50274;45.640;11.756;2022-08-25T10:04:57;31.40;43.80
63017;DHT22;50274;45.640;11.756;2022-08-25T10:07:31;31.50;43.90
63017;DHT22;50274;45.640;11.756;2022-08-25T10:10:05;31.60;43.70
63017;DHT22;50274;45.640;11.756;2022-08-25T10:12:43;31.60;42.70
63017;DHT22;50274;45.640;11.756;2022-08-25T10:17:53;31.80;42.90
63017;DHT22;50274;45.640;11.756;2022-08-25T10:20:23;32.00;42.60
63017;DHT22;50274;45.640;11.756;2022-08-25T10:22:49;32.10;42.50
63017;DHT22;50274;45.640;11.756;2022-08-25T10:25:29;32.20;42.00
63017;DHT22;50274;45.640;11.756;2022-08-25T10:28:05;32.30;41.30
63017;DHT22;50274;45.640;11.756;2022-08-25T10:30:41;32.40;41.10
63017;DHT22;50274;45.640;11.756;2022-08-25T10:39:00;32.60;41.20
63017;DHT22;50274;45.640;11.756;2022-08-25T10:41:49;32.70;41.20
63017;DHT22;50274;45.640;11.756;2022-08-25T10:56:25;33.00;40.50
63017;DHT22;50274;45.640;11.756;2022-08-25T11:04:31;33.20;40.10
63017;DHT22;50274;45.640;11.756;2022-08-25T11:13:05;33.40;39.90
63017;DHT22;50274;45.640;11.756;2022-08-25T11:15:39;33.60;39.80
63017;DHT22;50274;45.640;11.756;2022-08-25T11:18:10;33.60;39.50
63017;DHT22;50274;45.640;11.756;2022-08-25T11:23:30;33.90;39.10
63017;DHT22;50274;45.640;11.756;2022-08-25T11:26:02;34.10;39.20
63017;DHT22;50274;45.640;11.756;2022-08-25T11:31:25;34.10;38.90
63017;DHT22;50274;45.640;11.756;2022-08-25T11:33:53;34.20;38.60
63017;DHT22;50274;45.640;11.756;2022-08-25T11:36:31;34.20;38.60
63017;DHT22;50274;45.640;11.756;2022-08-25T11:52:49;34.90;37.30
63017;DHT22;50274;45.640;11.756;2022-08-25T11:55:26;35.10;37.50
63017;DHT22;50274;45.640;11.756;2022-08-25T11:58:23;35.10;37.20
63017;DHT22;50274;45.640;11.756;2022-08-25T12:10:21;35.20;36.40
63017;DHT22;50274;45.640;11.756;2022-08-25T12:17:47;35.70;37.10
63017;DHT22;50274;45.640;11.756;2022-08-25T12:23:43;35.70;35.90
63017;DHT22;50274;45.640;11.756;2022-08-25T12:37:25;36.00;35.50
63017;DHT22;50274;45.640;11.756;2022-08-25T12:40:02;36.00;35.10
63017;DHT22;50274;45.640;11.756;2022-08-25T12:42:40;36.10;35.20
63017;DHT22;50274;45.640;11.756;2022-08-25T12:47:51;36.00;35.60
63017;DHT22;50274;45.640;11.756;2022-08-25T12:55:44;36.20;36.00
63017;DHT22;50274;45.640;11.756;2022-08-25T12:58:11;36.30;35.60
63017;DHT22;50274;45.640;11.756;2022-08-25T13:00:53;36.20;35.40
63017;DHT22;50274;45.640;11.756;2022-08-25T13:03:48;36.20;35.20
63017;DHT22;50274;45.640;11.756;2022-08-25T13:14:43;36.10;34.70
63017;DHT22;50274;45.640;11.756;2022-08-25T13:17:10;36.10;35.00
63017;DHT22;50274;45.640;11.756;2022-08-25T13:19:36;36.20;35.20
63017;DHT22;50274;45.640;11.756;2022-08-25T13:22:11;36.20;35.10
63017;DHT22;50274;45.640;11.756;2022-08-25T13:24:42;36.30;34.80
63017;DHT22;50274;45.640;11.756;2022-08-25T13:27:19;36.40;34.30
63017;DHT22;50274;45.640;11.756;2022-08-25T13:29:52;36.40;34.40
63017;DHT22;50274;45.640;11.756;2022-08-25T13:32:30;36.50;34.80
63017;DHT22;50274;45.640;11.756;2022-08-25T13:35:14;36.70;34.80
63017;DHT22;50274;45.640;11.756;2022-08-25T13:37:40;36.80;33.90
63017;DHT22;50274;45.640;11.756;2022-08-25T13:40:26;36.70;33.80
63017;DHT22;50274;45.640;11.756;2022-08-25T13:43:02;36.60;33.70
63017;DHT22;50274;45.640;11.756;2022-08-25T13:45:30;36.60;34.50
63017;DHT22;50274;45.640;11.756;2022-08-25T13:47:59;36.60;34.60
63017;DHT22;50274;45.640;11.756;2022-08-25T13:58:01;36.50;34.70
63017;DHT22;50274;45.640;11.756;2022-08-25T14:00:33;36.40;33.80
63017;DHT22;50274;45.640;11.756;2022-08-25T14:03:03;36.30;34.00
63017;DHT22;50274;45.640;11.756;2022-08-25T14:05:41;36.20;33.60
63017;DHT22;50274;45.640;11.756;2022-08-25T14:08:32;36.10;33.60
63017;DHT22;50274;45.640;11.756;2022-08-25T14:11:07;36.10;33.80
63017;DHT22;50274;45.640;11.756;2022-08-25T14:13:34;36.10;33.80
63017;DHT22;50274;45.640;11.756;2022-08-25T14:16:19;36.20;33.90
63017;DHT22;50274;45.640;11.756;2022-08-25T14:18:51;36.20;33.80
63017;DHT22;50274;45.640;11.756;2022-08-25T14:21:21;36.20;33.10
63017;DHT22;50274;45.640;11.756;2022-08-25T14:23:47;36.10;33.10
63017;DHT22;50274;45.640;11.756;2022-08-25T14:26:13;36.10;33.50
63017;DHT22;50274;45.640;11.756;2022-08-25T14:28:39;36.10;33.50
63017;DHT22;50274;45.640;11.756;2022-08-25T14:31:12;36.10;33.40
63017;DHT22;50274;45.640;11.756;2022-08-25T14:33:47;36.10;33.40
63017;DHT22;50274;45.640;11.756;2022-08-25T14:36:14;36.10;33.60
63017;DHT22;50274;45.640;11.756;2022-08-25T14:38:40;36.00;33.50
63017;DHT22;50274;45.640;11.756;2022-08-25T14:41:06;36.00;33.40
63017;DHT22;50274;45.640;11.756;2022-08-25T14:43:32;35.90;33.60
63017;DHT22;50274;45.640;11.756;2022-08-25T14:45:59;35.90;33.90
63017;DHT22;50274;45.640;11.756;2022-08-25T14:48:30;35.90;33.60
63017;DHT22;50274;45.640;11.756;2022-08-25T14:50:59;35.80;34.30
63017;DHT22;50274;45.640;11.756;2022-08-25T14:53:26;35.70;34.60
63017;DHT22;50274;45.640;11.756;2022-08-25T14:55:52;35.70;34.50
63017;DHT22;50274;45.640;11.756;2022-08-25T14:58:22;35.60;34.80
63017;DHT22;50274;45.640;11.756;2022-08-25T15:00:49;35.70;35.20
63017;DHT22;50274;45.640;11.756;2022-08-25T15:03:17;35.70;35.40
63017;DHT22;50274;45.640;11.756;2022-08-25T15:05:46;35.60;35.10
63017;DHT22;50274;45.640;11.756;2022-08-25T15:08:12;35.40;34.60
63017;DHT22;50274;45.640;11.756;2022-08-25T15:10:56;35.30;34.60
63017;DHT22;50274;45.640;11.756;2022-08-25T15:13:22;35.10;34.50
63017;DHT22;50274;45.640;11.756;2022-08-25T15:15:48;34.90;34.90
63017;DHT22;50274;45.640;11.756;2022-08-25T15:18:15;34.90;35.20
63017;DHT22;50274;45.640;11.756;2022-08-25T15:20:41;34.80;35.50
63017;DHT22;50274;45.640;11.756;2022-08-25T15:23:07;34.70;35.60
63017;DHT22;50274;45.640;11.756;2022-08-25T15:25:34;34.60;35.60
63017;DHT22;50274;45.640;11.756;2022-08-25T15:28:05;34.50;35.90
63017;DHT22;50274;45.640;11.756;2022-08-25T15:30:33;34.50;36.40
63017;DHT22;50274;45.640;11.756;2022-08-25T15:33:00;34.50;36.70
63017;DHT22;50274;45.640;11.756;2022-08-25T15:35:26;34.50;36.80
63017;DHT22;50274;45.640;11.756;2022-08-25T15:37:52;34.50;36.80
63017;DHT22;50274;45.640;11.756;2022-08-25T15:40:18;34.40;36.40
63017;DHT22;50274;45.640;11.756;2022-08-25T15:42:44;34.30;36.30
63017;DHT22;50274;45.640;11.756;2022-08-25T15:45:10;34.20;36.50
63017;DHT22;50274;45.640;11.756;2022-08-25T15:47:36;34.10;37.00
63017;DHT22;50274;45.640;11.756;2022-08-25T15:50:14;34.10;37.30
63017;DHT22;50274;45.640;11.756;2022-08-25T15:52:41;34.00;36.80
63017;DHT22;50274;45.640;11.756;2022-08-25T15:55:08;33.80;37.60
63017;DHT22;50274;45.640;11.756;2022-08-25T15:57:35;33.70;37.90
63017;DHT22;50274;45.640;11.756;2022-08-25T16:00:04;33.60;37.80
63017;DHT22;50274;45.640;11.756;2022-08-25T16:02:31;33.50;38.00
63017;DHT22;50274;45.640;11.756;2022-08-25T16:04:59;33.40;37.80
63017;DHT22;50274;45.640;11.756;2022-08-25T16:07:25;33.20;37.90
63017;DHT22;50274;45.640;11.756;2022-08-25T16:09:55;33.10;38.30
63017;DHT22;50274;45.640;11.756;2022-08-25T16:12:22;32.90;38.50
63017;DHT22;50274;45.640;11.756;2022-08-25T16:14:51;32.70;38.70
63017;DHT22;50274;45.640;11.756;2022-08-25T16:17:20;32.60;39.20
63017;DHT22;50274;45.640;11.756;2022-08-25T16:19:46;32.40;39.60
63017;DHT22;50274;45.640;11.756;2022-08-25T16:22:17;32.40;39.90
63017;DHT22;50274;45.640;11.756;2022-08-25T16:24:45;32.20;40.00
63017;DHT22;50274;45.640;11.756;2022-08-25T16:27:12;32.10;40.30
63017;DHT22;50274;45.640;11.756;2022-08-25T16:29:41;32.00;40.70
63017;DHT22;50274;45.640;11.756;2022-08-25T16:32:08;32.00;40.90
63017;DHT22;50274;45.640;11.756;2022-08-25T16:34:34;31.90;41.00
63017;DHT22;50274;45.640;11.756;2022-08-25T16:37:01;31.90;41.20
63017;DHT22;50274;45.640;11.756;2022-08-25T16:39:27;31.80;41.40
63017;DHT22;50274;45.640;11.756;2022-08-25T16:41:53;31.70;41.80
63017;DHT22;50274;45.640;11.756;2022-08-25T16:44:20;31.70;42.00
63017;DHT22;50274;45.640;11.756;2022-08-25T16:46:46;31.70;41.80
63017;DHT22;50274;45.640;11.756;2022-08-25T16:49:13;31.70;41.90
63017;DHT22;50274;45.640;11.756;2022-08-25T16:51:39;31.60;42.20
63017;DHT22;50274;45.640;11.756;2022-08-25T16:54:09;31.60;42.30
63017;DHT22;50274;45.640;11.756;2022-08-25T16:56:53;31.50;42.30
63017;DHT22;50274;45.640;11.756;2022-08-25T16:59:20;31.50;42.20
63017;DHT22;50274;45.640;11.756;2022-08-25T17:01:45;31.50;42.10
63017;DHT22;50274;45.640;11.756;2022-08-25T17:04:11;31.50;42.10
63017;DHT22;50274;45.640;11.756;2022-08-25T17:06:41;31.40;42.10
63017;DHT22;50274;45.640;11.756;2022-08-25T17:09:08;31.40;42.30
63017;DHT22;50274;45.640;11.756;2022-08-25T17:11:38;31.40;42.40
63017;DHT22;50274;45.640;11.756;2022-08-25T17:14:08;31.40;42.40
63017;DHT22;50274;45.640;11.756;2022-08-25T17:16:34;31.30;42.50
63017;DHT22;50274;45.640;11.756;2022-08-25T17:19:04;31.30;42.50
63017;DHT22;50274;45.640;11.756;2022-08-25T17:21:33;31.30;42.60
63017;DHT22;50274;45.640;11.756;2022-08-25T17:24:00;31.20;42.60
63017;DHT22;50274;45.640;11.756;2022-08-25T17:26:28;31.20;42.60
63017;DHT22;50274;45.640;11.756;2022-08-25T17:28:55;31.20;42.70
63017;DHT22;50274;45.640;11.756;2022-08-25T17:31:21;31.10;42.80
63017;DHT22;50274;45.640;11.756;2022-08-25T17:33:48;31.10;43.00
63017;DHT22;50274;45.640;11.756;2022-08-25T17:36:14;31.10;43.20
63017;DHT22;50274;45.640;11.756;2022-08-25T17:38:41;31.00;43.50
63017;DHT22;50274;45.640;11.756;2022-08-25T17:41:08;30.90;43.70
63017;DHT22;50274;45.640;11.756;2022-08-25T17:43:38;30.90;43.80
63017;DHT22;50274;45.640;11.756;2022-08-25T17:46:04;30.90;43.90
63017;DHT22;50274;45.640;11.756;2022-08-25T17:48:31;30.80;44.10
63017;DHT22;50274;45.640;11.756;2022-08-25T17:50:58;30.80;44.30
63017;DHT22;50274;45.640;11.756;2022-08-25T17:53:24;30.80;44.50
63017;DHT22;50274;45.640;11.756;2022-08-25T17:55:58;30.70;44.80
63017;DHT22;50274;45.640;11.756;2022-08-25T17:58:27;30.70;44.80